sensor_id;sensor_type;location;lat;lon;timestamp;P1;durP1;ratioP1;P2;durP2;ratioP2
2462;SDS011;1243;54.298;10.172;2024-03-29T00:01:22;6.93;;;6.23;;
2462;SDS011;1243;54.298;10.172;2024-03-29T00:03:49;7.90;;;6.80;;
2462;SDS011;1243;54.298;10.172;2024-03-29T00:06:14;5.93;;;5.50;;
2462;SDS011;1243;54.298;10.172;2024-03-29T00:08:47;6.20;;;5.60;;
2462;SDS011;1243;54.298;10.172;2024-03-29T00:11:14;6.10;;;5.70;;
2462;SDS011;1243;54.298;10.172;2024-03-29T00:13:39;9.57;;;7.17;;
2462;SDS011;1243;54.298;10.172;2024-03-29T00:16:07;6.50;;;5.90;;
2462;SDS011;1243;54.298;10.172;2024-03-29T00:18:33;7.13;;;6.50;;
2462;SDS011;1243;54.298;10.172;2024-03-29T00:20:58;6.10;;;5.33;;
2462;SDS011;1243;54.298;10.172;2024-03-29T00:23:24;9.33;;;6.03;;
2462;SDS011;1243;54.298;10.172;2024-03-29T00:25:50;9.07;;;5.57;;
2462;SDS011;1243;54.298;10.172;2024-03-29T00:28:16;6.07;;;5.67;;
2462;SDS011;1243;54.298;10.172;2024-03-29T00:30:42;5.63;;;5.20;;
2462;SDS011;1243;54.298;10.172;2024-03-29T00:33:08;4.63;;;4.30;;
2462;SDS011;1243;54.298;10.172;2024-03-29T00:35:34;7.20;;;4.67;;
2462;SDS011;1243;54.298;10.172;2024-03-29T00:38:00;6.47;;;4.97;;
2462;SDS011;1243;54.298;10.172;2024-03-29T00:40:26;5.37;;;5.07;;
2462;SDS011;1243;54.298;10.172;2024-03-29T00:42:51;9.60;;;4.73;;
2462;SDS011;1243;54.298;10.172;2024-03-29T00:45:18;5.40;;;4.90;;
2462;SDS011;1243;54.298;10.172;2024-03-29T00:47:45;5.13;;;4.70;;
2462;SDS011;1243;54.298;10.172;2024-03-29T00:50:10;4.50;;;4.23;;
2462;SDS011;1243;54.298;10.172;2024-03-29T00:52:36;5.50;;;5.07;;
2462;SDS011;1243;54.298;10.172;2024-03-29T00:55:02;4.20;;;4.00;;
2462;SDS011;1243;54.298;10.172;2024-03-29T00:57:28;4.50;;;4.20;;
2462;SDS011;1243;54.298;10.172;2024-03-29T00:59:54;4.80;;;4.40;;
2462;SDS011;1243;54.298;10.172;2024-03-29T01:02:21;4.90;;;4.40;;
2462;SDS011;1243;54.298;10.172;2024-03-29T01:04:48;6.97;;;4.40;;
2462;SDS011;1243;54.298;10.172;2024-03-29T01:07:14;4.23;;;3.93;;
2462;SDS011;1243;54.298;10.172;2024-03-29T01:09:42;5.23;;;4.87;;
2462;SDS011;1243;54.298;10.172;2024-03-29T01:12:09;7.33;;;4.67;;
2462;SDS011;1243;54.298;10.172;2024-03-29T01:14:35;5.07;;;4.77;;
2462;SDS011;1243;54.298;10.172;2024-03-29T01:17:01;4.40;;;4.00;;
2462;SDS011;1243;54.298;10.172;2024-03-29T01:19:27;5.30;;;4.80;;
2462;SDS011;1243;54.298;10.172;2024-03-29T01:21:53;6.70;;;3.80;;
2462;SDS011;1243;54.298;10.172;2024-03-29T01:24:19;6.40;;;4.90;;
2462;SDS011;1243;54.298;10.172;2024-03-29T01:26:44;4.63;;;4.20;;
2462;SDS011;1243;54.298;10.172;2024-03-29T01:29:10;5.90;;;5.40;;
2462;SDS011;1243;54.298;10.172;2024-03-29T01:31:36;3.90;;;3.60;;
2462;SDS011;1243;54.298;10.172;2024-03-29T01:34:02;5.17;;;4.77;;
2462;SDS011;1243;54.298;10.172;2024-03-29T01:36:28;4.80;;;4.23;;
2462;SDS011;1243;54.298;10.172;2024-03-29T01:38:54;4.47;;;4.17;;
2462;SDS011;1243;54.298;10.172;2024-03-29T01:41:23;4.33;;;4.07;;
2462;SDS011;1243;54.298;10.172;2024-03-29T01:43:51;6.70;;;4.63;;
2462;SDS011;1243;54.298;10.172;2024-03-29T01:46:18;4.33;;;4.03;;
2462;SDS011;1243;54.298;10.172;2024-03-29T01:48:46;4.70;;;4.30;;
2462;SDS011;1243;54.298;10.172;2024-03-29T01:51:13;5.33;;;4.83;;
2462;SDS011;1243;54.298;10.172;2024-03-29T01:53:40;6.57;;;4.50;;
2462;SDS011;1243;54.298;10.172;2024-03-29T01:56:06;5.50;;;4.47;;
2462;SDS011;1243;54.298;10.172;2024-03-29T01:58:33;5.10;;;4.00;;
2462;SDS011;1243;54.298;10.172;2024-03-29T02:01:00;6.90;;;5.30;;
2462;SDS011;1243;54.298;10.172;2024-03-29T02:03:26;4.43;;;4.13;;
2462;SDS011;1243;54.298;10.172;2024-03-29T02:06:08;4.00;;;3.80;;
2462;SDS011;1243;54.298;10.172;2024-03-29T02:08:36;4.43;;;4.10;;
2462;SDS011;1243;54.298;10.172;2024-03-29T02:11:02;4.50;;;3.77;;
2462;SDS011;1243;54.298;10.172;2024-03-29T02:13:29;4.10;;;3.57;;
2462;SDS011;1243;54.298;10.172;2024-03-29T02:15:55;5.93;;;3.57;;
2462;SDS011;1243;54.298;10.172;2024-03-29T02:18:21;3.43;;;3.23;;
2462;SDS011;1243;54.298;10.172;2024-03-29T02:21:08;4.83;;;4.43;;
2462;SDS011;1243;54.298;10.172;2024-03-29T02:23:36;4.43;;;4.13;;
2462;SDS011;1243;54.298;10.172;2024-03-29T02:26:05;4.27;;;3.83;;
2462;SDS011;1243;54.298;10.172;2024-03-29T02:28:31;6.30;;;3.43;;
2462;SDS011;1243;54.298;10.172;2024-03-29T02:30:57;6.30;;;4.00;;
2462;SDS011;1243;54.298;10.172;2024-03-29T02:33:23;4.00;;;3.60;;
2462;SDS011;1243;54.298;10.172;2024-03-29T02:35:49;3.83;;;3.50;;
2462;SDS011;1243;54.298;10.172;2024-03-29T02:38:15;3.83;;;3.53;;
2462;SDS011;1243;54.298;10.172;2024-03-29T02:40:41;4.20;;;3.80;;
2462;SDS011;1243;54.298;10.172;2024-03-29T02:43:06;5.87;;;3.13;;
2462;SDS011;1243;54.298;10.172;2024-03-29T02:45:32;3.63;;;3.33;;
2462;SDS011;1243;54.298;10.172;2024-03-29T02:47:58;5.10;;;4.33;;
2462;SDS011;1243;54.298;10.172;2024-03-29T02:50:23;8.00;;;5.50;;
2462;SDS011;1243;54.298;10.172;2024-03-29T02:52:49;3.87;;;3.53;;
2462;SDS011;1243;54.298;10.172;2024-03-29T02:55:16;6.37;;;3.53;;
2462;SDS011;1243;54.298;10.172;2024-03-29T02:57:42;4.07;;;3.47;;
2462;SDS011;1243;54.298;10.172;2024-03-29T03:00:08;4.73;;;3.57;;
2462;SDS011;1243;54.298;10.172;2024-03-29T03:02:40;4.00;;;3.77;;
2462;SDS011;1243;54.298;10.172;2024-03-29T03:05:07;4.93;;;3.30;;
2462;SDS011;1243;54.298;10.172;2024-03-29T03:07:34;6.27;;;3.17;;
2462;SDS011;1243;54.298;10.172;2024-03-29T03:10:21;3.80;;;3.50;;
2462;SDS011;1243;54.298;10.172;2024-03-29T03:13:06;4.20;;;2.87;;
2462;SDS011;1243;54.298;10.172;2024-03-29T03:15:32;3.20;;;2.90;;
2462;SDS011;1243;54.298;10.172;2024-03-29T03:17:57;3.00;;;2.80;;
2462;SDS011;1243;54.298;10.172;2024-03-29T03:20:23;3.70;;;3.40;;
2462;SDS011;1243;54.298;10.172;2024-03-29T03:22:53;3.27;;;2.97;;
2462;SDS011;1243;54.298;10.172;2024-03-29T03:25:18;4.50;;;2.80;;
2462;SDS011;1243;54.298;10.172;2024-03-29T03:27:44;5.20;;;4.87;;
2462;SDS011;1243;54.298;10.172;2024-03-29T03:30:12;3.13;;;2.93;;
2462;SDS011;1243;54.298;10.172;2024-03-29T03:32:38;4.30;;;3.00;;
2462;SDS011;1243;54.298;10.172;2024-03-29T03:35:04;3.30;;;3.00;;
2462;SDS011;1243;54.298;10.172;2024-03-29T03:37:30;5.10;;;3.40;;
2462;SDS011;1243;54.298;10.172;2024-03-29T03:39:56;3.77;;;2.80;;
2462;SDS011;1243;54.298;10.172;2024-03-29T03:42:22;3.00;;;2.80;;
2462;SDS011;1243;54.298;10.172;2024-03-29T03:44:47;4.13;;;3.83;;
2462;SDS011;1243;54.298;10.172;2024-03-29T03:47:13;3.30;;;2.90;;
2462;SDS011;1243;54.298;10.172;2024-03-29T03:49:39;3.00;;;2.70;;
2462;SDS011;1243;54.298;10.172;2024-03-29T03:52:04;9.07;;;3.17;;
2462;SDS011;1243;54.298;10.172;2024-03-29T03:54:30;3.47;;;2.80;;
2462;SDS011;1243;54.298;10.172;2024-03-29T03:56:56;7.03;;;3.77;;
2462;SDS011;1243;54.298;10.172;2024-03-29T03:59:21;4.67;;;2.93;;
2462;SDS011;1243;54.298;10.172;2024-03-29T04:01:47;3.63;;;3.37;;
2462;SDS011;1243;54.298;10.172;2024-03-29T04:04:16;5.07;;;3.70;;
2462;SDS011;1243;54.298;10.172;2024-03-29T04:06:42;3.23;;;2.70;;
2462;SDS011;1243;54.298;10.172;2024-03-29T04:09:08;3.50;;;3.20;;
2462;SDS011;1243;54.298;10.172;2024-03-29T04:11:34;5.87;;;3.30;;
2462;SDS011;1243;54.298;10.172;2024-03-29T04:13:59;3.50;;;3.13;;
2462;SDS011;1243;54.298;10.172;2024-03-29T04:16:25;6.80;;;3.30;;
2462;SDS011;1243;54.298;10.172;2024-03-29T04:18:51;4.20;;;3.00;;
2462;SDS011;1243;54.298;10.172;2024-03-29T04:21:17;3.50;;;3.13;;
2462;SDS011;1243;54.298;10.172;2024-03-29T04:23:42;5.57;;;3.77;;
2462;SDS011;1243;54.298;10.172;2024-03-29T04:26:08;5.00;;;4.70;;
2462;SDS011;1243;54.298;10.172;2024-03-29T04:28:33;3.10;;;2.90;;
2462;SDS011;1243;54.298;10.172;2024-03-29T04:31:00;3.50;;;3.20;;
2462;SDS011;1243;54.298;10.172;2024-03-29T04:33:26;4.57;;;3.50;;
2462;SDS011;1243;54.298;10.172;2024-03-29T04:38:22;6.80;;;3.87;;
2462;SDS011;1243;54.298;10.172;2024-03-29T04:40:49;4.80;;;3.30;;
2462;SDS011;1243;54.298;10.172;2024-03-29T04:43:16;3.47;;;3.17;;
2462;SDS011;1243;54.298;10.172;2024-03-29T04:45:43;4.93;;;2.80;;
2462;SDS011;1243;54.298;10.172;2024-03-29T04:48:09;3.87;;;3.47;;
2462;SDS011;1243;54.298;10.172;2024-03-29T04:50:35;4.20;;;3.90;;
2462;SDS011;1243;54.298;10.172;2024-03-29T04:53:01;6.10;;;3.47;;
2462;SDS011;1243;54.298;10.172;2024-03-29T04:55:27;3.50;;;3.20;;
2462;SDS011;1243;54.298;10.172;2024-03-29T04:57:53;4.87;;;4.20;;
2462;SDS011;1243;54.298;10.172;2024-03-29T05:00:20;4.07;;;3.67;;
2462;SDS011;1243;54.298;10.172;2024-03-29T05:02:45;4.00;;;3.60;;
2462;SDS011;1243;54.298;10.172;2024-03-29T05:05:11;6.40;;;3.10;;
2462;SDS011;1243;54.298;10.172;2024-03-29T05:07:37;5.30;;;3.23;;
2462;SDS011;1243;54.298;10.172;2024-03-29T05:10:02;3.83;;;3.33;;
2462;SDS011;1243;54.298;10.172;2024-03-29T05:12:31;3.80;;;3.50;;
2462;SDS011;1243;54.298;10.172;2024-03-29T05:14:57;3.27;;;3.07;;
2462;SDS011;1243;54.298;10.172;2024-03-29T05:17:23;5.70;;;2.80;;
2462;SDS011;1243;54.298;10.172;2024-03-29T05:19:53;4.80;;;2.97;;
2462;SDS011;1243;54.298;10.172;2024-03-29T05:22:19;3.93;;;3.23;;
2462;SDS011;1243;54.298;10.172;2024-03-29T05:24:46;2.83;;;2.63;;
2462;SDS011;1243;54.298;10.172;2024-03-29T05:27:12;3.53;;;3.23;;
2462;SDS011;1243;54.298;10.172;2024-03-29T05:29:37;2.90;;;2.70;;
2462;SDS011;1243;54.298;10.172;2024-03-29T05:32:03;3.33;;;2.47;;
2462;SDS011;1243;54.298;10.172;2024-03-29T05:34:30;3.40;;;3.10;;
2462;SDS011;1243;54.298;10.172;2024-03-29T05:36:55;6.33;;;3.13;;
2462;SDS011;1243;54.298;10.172;2024-03-29T05:39:21;2.80;;;2.60;;
2462;SDS011;1243;54.298;10.172;2024-03-29T05:41:47;2.77;;;2.63;;
2462;SDS011;1243;54.298;10.172;2024-03-29T05:44:13;3.03;;;2.83;;
2462;SDS011;1243;54.298;10.172;2024-03-29T05:46:40;2.50;;;2.40;;
2462;SDS011;1243;54.298;10.172;2024-03-29T05:49:08;2.80;;;2.60;;
2462;SDS011;1243;54.298;10.172;2024-03-29T05:51:35;3.20;;;2.70;;
2462;SDS011;1243;54.298;10.172;2024-03-29T05:54:00;3.40;;;3.10;;
2462;SDS011;1243;54.298;10.172;2024-03-29T05:56:28;2.70;;;2.50;;
2462;SDS011;1243;54.298;10.172;2024-03-29T05:58:54;4.13;;;2.87;;
2462;SDS011;1243;54.298;10.172;2024-03-29T06:01:20;2.80;;;2.70;;
2462;SDS011;1243;54.298;10.172;2024-03-29T06:03:48;3.00;;;2.80;;
2462;SDS011;1243;54.298;10.172;2024-03-29T06:06:14;3.07;;;2.87;;
2462;SDS011;1243;54.298;10.172;2024-03-29T06:08:43;3.67;;;2.67;;
2462;SDS011;1243;54.298;10.172;2024-03-29T06:11:09;2.57;;;2.47;;
2462;SDS011;1243;54.298;10.172;2024-03-29T06:13:34;2.80;;;2.70;;
2462;SDS011;1243;54.298;10.172;2024-03-29T06:16:21;2.80;;;2.30;;
2462;SDS011;1243;54.298;10.172;2024-03-29T06:19:07;4.77;;;3.50;;
2462;SDS011;1243;54.298;10.172;2024-03-29T06:21:33;3.00;;;2.80;;
2462;SDS011;1243;54.298;10.172;2024-03-29T06:24:05;3.63;;;2.57;;
2462;SDS011;1243;54.298;10.172;2024-03-29T06:26:32;3.40;;;2.73;;
2462;SDS011;1243;54.298;10.172;2024-03-29T06:29:00;4.23;;;2.50;;
2462;SDS011;1243;54.298;10.172;2024-03-29T06:31:34;2.67;;;2.47;;
2462;SDS011;1243;54.298;10.172;2024-03-29T06:34:00;3.80;;;2.20;;
2462;SDS011;1243;54.298;10.172;2024-03-29T06:36:43;5.60;;;3.10;;
2462;SDS011;1243;54.298;10.172;2024-03-29T06:39:08;3.60;;;2.67;;
2462;SDS011;1243;54.298;10.172;2024-03-29T06:41:35;3.63;;;3.17;;
2462;SDS011;1243;54.298;10.172;2024-03-29T06:44:01;2.60;;;2.40;;
2462;SDS011;1243;54.298;10.172;2024-03-29T06:46:27;5.67;;;2.80;;
2462;SDS011;1243;54.298;10.172;2024-03-29T06:48:52;7.03;;;2.93;;
2462;SDS011;1243;54.298;10.172;2024-03-29T06:51:18;5.50;;;2.63;;
2462;SDS011;1243;54.298;10.172;2024-03-29T06:53:45;3.77;;;2.90;;
2462;SDS011;1243;54.298;10.172;2024-03-29T06:56:11;2.70;;;2.37;;
2462;SDS011;1243;54.298;10.172;2024-03-29T06:58:37;3.00;;;2.17;;
2462;SDS011;1243;54.298;10.172;2024-03-29T07:01:02;2.80;;;2.60;;
2462;SDS011;1243;54.298;10.172;2024-03-29T07:03:28;2.60;;;2.40;;
2462;SDS011;1243;54.298;10.172;2024-03-29T07:05:54;2.77;;;2.57;;
2462;SDS011;1243;54.298;10.172;2024-03-29T07:08:20;3.70;;;2.53;;
2462;SDS011;1243;54.298;10.172;2024-03-29T07:10:47;2.30;;;2.10;;
2462;SDS011;1243;54.298;10.172;2024-03-29T07:13:13;5.53;;;3.07;;
2462;SDS011;1243;54.298;10.172;2024-03-29T07:15:38;5.77;;;3.57;;
2462;SDS011;1243;54.298;10.172;2024-03-29T07:18:04;2.90;;;2.70;;
2462;SDS011;1243;54.298;10.172;2024-03-29T07:20:31;6.20;;;2.53;;
2462;SDS011;1243;54.298;10.172;2024-03-29T07:22:58;3.40;;;2.43;;
2462;SDS011;1243;54.298;10.172;2024-03-29T07:25:24;2.60;;;2.40;;
2462;SDS011;1243;54.298;10.172;2024-03-29T07:27:53;2.90;;;2.33;;
2462;SDS011;1243;54.298;10.172;2024-03-29T07:30:20;2.37;;;2.27;;
2462;SDS011;1243;54.298;10.172;2024-03-29T07:32:47;2.67;;;2.40;;
2462;SDS011;1243;54.298;10.172;2024-03-29T07:35:14;2.23;;;2.03;;
2462;SDS011;1243;54.298;10.172;2024-03-29T07:37:43;2.80;;;2.60;;
2462;SDS011;1243;54.298;10.172;2024-03-29T07:40:16;4.23;;;3.20;;
2462;SDS011;1243;54.298;10.172;2024-03-29T07:42:42;2.47;;;2.37;;
2462;SDS011;1243;54.298;10.172;2024-03-29T07:45:09;4.40;;;2.90;;
2462;SDS011;1243;54.298;10.172;2024-03-29T07:47:39;2.80;;;2.60;;
2462;SDS011;1243;54.298;10.172;2024-03-29T07:52:44;13.30;;;2.70;;
2462;SDS011;1243;54.298;10.172;2024-03-29T07:55:14;7.53;;;2.80;;
2462;SDS011;1243;54.298;10.172;2024-03-29T07:58:01;2.30;;;2.10;;
2462;SDS011;1243;54.298;10.172;2024-03-29T08:00:30;7.30;;;2.77;;
2462;SDS011;1243;54.298;10.172;2024-03-29T08:02:57;4.63;;;2.97;;
2462;SDS011;1243;54.298;10.172;2024-03-29T08:05:28;2.63;;;2.30;;
2462;SDS011;1243;54.298;10.172;2024-03-29T08:08:02;8.60;;;3.37;;
2462;SDS011;1243;54.298;10.172;2024-03-29T08:10:29;2.73;;;2.63;;
2462;SDS011;1243;54.298;10.172;2024-03-29T08:12:58;2.30;;;2.10;;
2462;SDS011;1243;54.298;10.172;2024-03-29T08:15:26;4.10;;;2.00;;
2462;SDS011;1243;54.298;10.172;2024-03-29T08:17:53;2.70;;;2.50;;
2462;SDS011;1243;54.298;10.172;2024-03-29T08:20:22;2.63;;;2.43;;
2462;SDS011;1243;54.298;10.172;2024-03-29T08:22:57;3.97;;;2.73;;
2462;SDS011;1243;54.298;10.172;2024-03-29T08:25:26;4.87;;;2.10;;
2462;SDS011;1243;54.298;10.172;2024-03-29T08:27:53;3.83;;;2.83;;
2462;SDS011;1243;54.298;10.172;2024-03-29T08:30:26;3.23;;;2.30;;
2462;SDS011;1243;54.298;10.172;2024-03-29T08:33:02;2.60;;;2.40;;
2462;SDS011;1243;54.298;10.172;2024-03-29T08:35:30;2.60;;;2.40;;
2462;SDS011;1243;54.298;10.172;2024-03-29T08:37:57;2.40;;;2.20;;
2462;SDS011;1243;54.298;10.172;2024-03-29T08:40:23;2.13;;;2.03;;
2462;SDS011;1243;54.298;10.172;2024-03-29T08:42:59;5.07;;;2.00;;
2462;SDS011;1243;54.298;10.172;2024-03-29T08:45:29;3.50;;;2.60;;
2462;SDS011;1243;54.298;10.172;2024-03-29T08:48:08;2.70;;;2.47;;
2462;SDS011;1243;54.298;10.172;2024-03-29T08:50:34;2.43;;;2.23;;
2462;SDS011;1243;54.298;10.172;2024-03-29T08:53:02;2.57;;;2.40;;
2462;SDS011;1243;54.298;10.172;2024-03-29T08:55:29;3.53;;;2.00;;
2462;SDS011;1243;54.298;10.172;2024-03-29T08:57:57;2.77;;;2.57;;
2462;SDS011;1243;54.298;10.172;2024-03-29T09:00:25;7.00;;;2.30;;
2462;SDS011;1243;54.298;10.172;2024-03-29T09:02:56;11.23;;;2.70;;
2462;SDS011;1243;54.298;10.172;2024-03-29T09:05:22;4.67;;;2.60;;
2462;SDS011;1243;54.298;10.172;2024-03-29T09:07:53;3.07;;;2.77;;
2462;SDS011;1243;54.298;10.172;2024-03-29T09:10:21;3.53;;;2.33;;
2462;SDS011;1243;54.298;10.172;2024-03-29T09:13:05;2.67;;;2.47;;
2462;SDS011;1243;54.298;10.172;2024-03-29T09:15:32;2.47;;;2.37;;
2462;SDS011;1243;54.298;10.172;2024-03-29T09:17:58;4.27;;;2.70;;
2462;SDS011;1243;54.298;10.172;2024-03-29T09:20:28;2.47;;;2.27;;
2462;SDS011;1243;54.298;10.172;2024-03-29T09:23:15;2.40;;;2.20;;
2462;SDS011;1243;54.298;10.172;2024-03-29T09:29:09;3.33;;;3.03;;
2462;SDS011;1243;54.298;10.172;2024-03-29T09:31:35;3.13;;;2.40;;
2462;SDS011;1243;54.298;10.172;2024-03-29T09:34:02;2.80;;;2.07;;
2462;SDS011;1243;54.298;10.172;2024-03-29T09:36:28;4.83;;;3.03;;
2462;SDS011;1243;54.298;10.172;2024-03-29T09:42:26;3.03;;;2.40;;
2462;SDS011;1243;54.298;10.172;2024-03-29T09:44:56;7.80;;;2.80;;
2462;SDS011;1243;54.298;10.172;2024-03-29T09:47:25;3.93;;;2.17;;
2462;SDS011;1243;54.298;10.172;2024-03-29T09:49:53;3.70;;;3.37;;
2462;SDS011;1243;54.298;10.172;2024-03-29T09:52:21;3.47;;;2.40;;
2462;SDS011;1243;54.298;10.172;2024-03-29T09:54:52;4.17;;;3.17;;
2462;SDS011;1243;54.298;10.172;2024-03-29T09:57:18;4.23;;;2.80;;
2462;SDS011;1243;54.298;10.172;2024-03-29T09:59:44;3.03;;;1.90;;
2462;SDS011;1243;54.298;10.172;2024-03-29T10:02:16;3.70;;;2.43;;
2462;SDS011;1243;54.298;10.172;2024-03-29T10:15:31;2.60;;;2.23;;
2462;SDS011;1243;54.298;10.172;2024-03-29T10:21:36;3.30;;;2.77;;
2462;SDS011;1243;54.298;10.172;2024-03-29T10:24:14;2.40;;;2.20;;
2462;SDS011;1243;54.298;10.172;2024-03-29T10:36:59;4.70;;;2.80;;
2462;SDS011;1243;54.298;10.172;2024-03-29T10:42:45;8.33;;;2.47;;
2462;SDS011;1243;54.298;10.172;2024-03-29T10:45:14;3.90;;;2.27;;
2462;SDS011;1243;54.298;10.172;2024-03-29T10:47:42;2.73;;;2.53;;
2462;SDS011;1243;54.298;10.172;2024-03-29T10:50:14;2.30;;;2.10;;
2462;SDS011;1243;54.298;10.172;2024-03-29T10:52:43;3.70;;;2.80;;
2462;SDS011;1243;54.298;10.172;2024-03-29T10:58:37;3.73;;;2.30;;
2462;SDS011;1243;54.298;10.172;2024-03-29T11:01:05;3.57;;;2.13;;
2462;SDS011;1243;54.298;10.172;2024-03-29T11:06:16;6.77;;;2.70;;
2462;SDS011;1243;54.298;10.172;2024-03-29T11:08:47;2.40;;;2.20;;
2462;SDS011;1243;54.298;10.172;2024-03-29T11:11:17;5.07;;;2.13;;
2462;SDS011;1243;54.298;10.172;2024-03-29T11:20:22;2.90;;;1.87;;
2462;SDS011;1243;54.298;10.172;2024-03-29T11:23:08;2.40;;;1.93;;
2462;SDS011;1243;54.298;10.172;2024-03-29T11:25:50;3.00;;;2.00;;
2462;SDS011;1243;54.298;10.172;2024-03-29T11:28:51;3.77;;;2.10;;
2462;SDS011;1243;54.298;10.172;2024-03-29T11:34:51;1.80;;;1.70;;
2462;SDS011;1243;54.298;10.172;2024-03-29T11:37:31;2.00;;;1.80;;
2462;SDS011;1243;54.298;10.172;2024-03-29T11:50:11;4.03;;;2.00;;
2462;SDS011;1243;54.298;10.172;2024-03-29T12:14:04;2.43;;;2.23;;
2462;SDS011;1243;54.298;10.172;2024-03-29T12:23:20;5.97;;;2.30;;
2462;SDS011;1243;54.298;10.172;2024-03-29T12:26:34;2.50;;;2.30;;
2462;SDS011;1243;54.298;10.172;2024-03-29T12:32:24;2.53;;;2.33;;
2462;SDS011;1243;54.298;10.172;2024-03-29T12:34:51;6.67;;;2.53;;
2462;SDS011;1243;54.298;10.172;2024-03-29T12:37:28;2.20;;;2.00;;
2462;SDS011;1243;54.298;10.172;2024-03-29T12:39:59;2.20;;;2.00;;
2462;SDS011;1243;54.298;10.172;2024-03-29T12:46:32;3.10;;;2.03;;
2462;SDS011;1243;54.298;10.172;2024-03-29T12:48:58;3.53;;;2.70;;
2462;SDS011;1243;54.298;10.172;2024-03-29T12:51:26;2.40;;;2.20;;
2462;SDS011;1243;54.298;10.172;2024-03-29T12:53:54;2.47;;;2.27;;
2462;SDS011;1243;54.298;10.172;2024-03-29T12:56:20;2.40;;;2.20;;
2462;SDS011;1243;54.298;10.172;2024-03-29T12:58:47;3.40;;;2.20;;
2462;SDS011;1243;54.298;10.172;2024-03-29T13:01:13;3.30;;;2.77;;
2462;SDS011;1243;54.298;10.172;2024-03-29T13:03:40;3.30;;;2.07;;
2462;SDS011;1243;54.298;10.172;2024-03-29T13:13:34;3.00;;;2.80;;
2462;SDS011;1243;54.298;10.172;2024-03-29T13:16:08;5.50;;;2.97;;
2462;SDS011;1243;54.298;10.172;2024-03-29T13:21:25;4.37;;;2.67;;
2462;SDS011;1243;54.298;10.172;2024-03-29T13:24:00;2.73;;;2.63;;
2462;SDS011;1243;54.298;10.172;2024-03-29T13:26:27;2.80;;;2.23;;
2462;SDS011;1243;54.298;10.172;2024-03-29T13:28:54;3.70;;;2.13;;
2462;SDS011;1243;54.298;10.172;2024-03-29T13:31:20;3.13;;;2.57;;
2462;SDS011;1243;54.298;10.172;2024-03-29T13:33:47;5.10;;;2.33;;
2462;SDS011;1243;54.298;10.172;2024-03-29T13:36:14;3.13;;;2.60;;
2462;SDS011;1243;54.298;10.172;2024-03-29T13:38:40;2.43;;;2.23;;
2462;SDS011;1243;54.298;10.172;2024-03-29T13:44:31;2.90;;;2.30;;
2462;SDS011;1243;54.298;10.172;2024-03-29T13:46:59;4.80;;;2.53;;
2462;SDS011;1243;54.298;10.172;2024-03-29T13:49:29;3.10;;;2.43;;
2462;SDS011;1243;54.298;10.172;2024-03-29T13:52:12;3.00;;;2.80;;
2462;SDS011;1243;54.298;10.172;2024-03-29T13:54:42;2.80;;;2.63;;
2462;SDS011;1243;54.298;10.172;2024-03-29T13:57:09;2.80;;;2.60;;
2462;SDS011;1243;54.298;10.172;2024-03-29T13:59:34;2.93;;;2.63;;
2462;SDS011;1243;54.298;10.172;2024-03-29T14:02:02;3.00;;;2.70;;
2462;SDS011;1243;54.298;10.172;2024-03-29T14:04:28;3.40;;;2.63;;
2462;SDS011;1243;54.298;10.172;2024-03-29T14:06:57;3.93;;;3.63;;
2462;SDS011;1243;54.298;10.172;2024-03-29T14:09:24;3.40;;;2.70;;
2462;SDS011;1243;54.298;10.172;2024-03-29T14:11:49;3.00;;;2.80;;
2462;SDS011;1243;54.298;10.172;2024-03-29T14:14:15;4.13;;;3.47;;
2462;SDS011;1243;54.298;10.172;2024-03-29T14:16:41;4.50;;;3.23;;
2462;SDS011;1243;54.298;10.172;2024-03-29T14:22:42;3.57;;;3.20;;
2462;SDS011;1243;54.298;10.172;2024-03-29T14:25:09;7.80;;;3.80;;
2462;SDS011;1243;54.298;10.172;2024-03-29T14:27:35;4.73;;;3.40;;
2462;SDS011;1243;54.298;10.172;2024-03-29T14:30:08;4.33;;;3.13;;
2462;SDS011;1243;54.298;10.172;2024-03-29T14:32:35;4.03;;;3.63;;
2462;SDS011;1243;54.298;10.172;2024-03-29T14:35:00;3.77;;;3.50;;
2462;SDS011;1243;54.298;10.172;2024-03-29T14:37:26;5.57;;;3.27;;
2462;SDS011;1243;54.298;10.172;2024-03-29T14:39:52;3.60;;;3.37;;
2462;SDS011;1243;54.298;10.172;2024-03-29T14:42:17;3.83;;;3.10;;
2462;SDS011;1243;54.298;10.172;2024-03-29T14:44:47;3.83;;;3.17;;
2462;SDS011;1243;54.298;10.172;2024-03-29T14:47:13;4.17;;;2.97;;
2462;SDS011;1243;54.298;10.172;2024-03-29T14:49:42;6.70;;;3.17;;
2462;SDS011;1243;54.298;10.172;2024-03-29T14:52:09;3.10;;;2.80;;
2462;SDS011;1243;54.298;10.172;2024-03-29T14:54:55;3.77;;;2.73;;
2462;SDS011;1243;54.298;10.172;2024-03-29T14:57:21;3.90;;;2.70;;
2462;SDS011;1243;54.298;10.172;2024-03-29T14:59:48;6.20;;;3.60;;
2462;SDS011;1243;54.298;10.172;2024-03-29T15:02:34;3.37;;;3.10;;
2462;SDS011;1243;54.298;10.172;2024-03-29T15:05:00;2.90;;;2.70;;
2462;SDS011;1243;54.298;10.172;2024-03-29T15:07:47;6.27;;;3.37;;
2462;SDS011;1243;54.298;10.172;2024-03-29T15:10:13;3.57;;;3.27;;
2462;SDS011;1243;54.298;10.172;2024-03-29T15:12:40;5.03;;;3.00;;
2462;SDS011;1243;54.298;10.172;2024-03-29T15:15:27;4.33;;;3.13;;
2462;SDS011;1243;54.298;10.172;2024-03-29T15:17:54;4.90;;;3.70;;
2462;SDS011;1243;54.298;10.172;2024-03-29T15:20:40;3.70;;;3.40;;
2462;SDS011;1243;54.298;10.172;2024-03-29T15:23:06;10.30;;;3.70;;
2462;SDS011;1243;54.298;10.172;2024-03-29T15:25:52;3.80;;;3.13;;
2462;SDS011;1243;54.298;10.172;2024-03-29T15:28:20;6.23;;;3.60;;
2462;SDS011;1243;54.298;10.172;2024-03-29T15:31:12;3.90;;;3.70;;
2462;SDS011;1243;54.298;10.172;2024-03-29T15:33:47;4.57;;;4.17;;
2462;SDS011;1243;54.298;10.172;2024-03-29T15:36:14;7.37;;;4.23;;
2462;SDS011;1243;54.298;10.172;2024-03-29T15:38:40;4.00;;;3.50;;
2462;SDS011;1243;54.298;10.172;2024-03-29T15:41:07;4.90;;;3.63;;
2462;SDS011;1243;54.298;10.172;2024-03-29T15:43:33;4.67;;;4.37;;
2462;SDS011;1243;54.298;10.172;2024-03-29T15:46:03;4.90;;;4.13;;
2462;SDS011;1243;54.298;10.172;2024-03-29T15:48:29;5.60;;;4.67;;
2462;SDS011;1243;54.298;10.172;2024-03-29T15:50:57;4.33;;;3.83;;
2462;SDS011;1243;54.298;10.172;2024-03-29T15:53:29;5.47;;;4.17;;
2462;SDS011;1243;54.298;10.172;2024-03-29T15:55:56;4.63;;;4.33;;
2462;SDS011;1243;54.298;10.172;2024-03-29T15:58:24;4.50;;;4.20;;
2462;SDS011;1243;54.298;10.172;2024-03-29T16:00:50;4.30;;;3.70;;
2462;SDS011;1243;54.298;10.172;2024-03-29T16:03:16;4.20;;;3.90;;
2462;SDS011;1243;54.298;10.172;2024-03-29T16:05:43;8.77;;;3.90;;
2462;SDS011;1243;54.298;10.172;2024-03-29T16:08:12;4.60;;;4.17;;
2462;SDS011;1243;54.298;10.172;2024-03-29T16:11:02;4.60;;;4.20;;
2462;SDS011;1243;54.298;10.172;2024-03-29T16:13:29;7.20;;;4.10;;
2462;SDS011;1243;54.298;10.172;2024-03-29T16:15:56;5.13;;;4.63;;
2462;SDS011;1243;54.298;10.172;2024-03-29T16:18:24;5.50;;;5.00;;
2462;SDS011;1243;54.298;10.172;2024-03-29T16:20:52;4.43;;;4.03;;
2462;SDS011;1243;54.298;10.172;2024-03-29T16:23:19;3.90;;;3.70;;
2462;SDS011;1243;54.298;10.172;2024-03-29T16:25:46;4.50;;;4.10;;
2462;SDS011;1243;54.298;10.172;2024-03-29T16:28:13;4.93;;;4.40;;
2462;SDS011;1243;54.298;10.172;2024-03-29T16:30:41;4.13;;;3.70;;
2462;SDS011;1243;54.298;10.172;2024-03-29T16:33:08;3.93;;;3.57;;
2462;SDS011;1243;54.298;10.172;2024-03-29T16:35:34;4.03;;;3.73;;
2462;SDS011;1243;54.298;10.172;2024-03-29T16:38:02;5.07;;;3.90;;
2462;SDS011;1243;54.298;10.172;2024-03-29T16:40:28;4.80;;;3.90;;
2462;SDS011;1243;54.298;10.172;2024-03-29T16:42:57;4.10;;;3.80;;
2462;SDS011;1243;54.298;10.172;2024-03-29T16:45:24;11.07;;;5.03;;
2462;SDS011;1243;54.298;10.172;2024-03-29T16:47:49;4.57;;;4.17;;
2462;SDS011;1243;54.298;10.172;2024-03-29T16:50:15;4.10;;;3.77;;
2462;SDS011;1243;54.298;10.172;2024-03-29T16:52:41;4.93;;;4.50;;
2462;SDS011;1243;54.298;10.172;2024-03-29T16:55:08;5.27;;;4.77;;
2462;SDS011;1243;54.298;10.172;2024-03-29T16:57:40;6.37;;;4.67;;
2462;SDS011;1243;54.298;10.172;2024-03-29T17:00:06;5.97;;;5.33;;
2462;SDS011;1243;54.298;10.172;2024-03-29T17:02:35;5.13;;;4.63;;
2462;SDS011;1243;54.298;10.172;2024-03-29T17:05:02;6.57;;;4.37;;
2462;SDS011;1243;54.298;10.172;2024-03-29T17:07:29;5.83;;;4.70;;